Time;durP1;ratioP1;P1;durP2;ratioP2;P2;SDS_P1;SDS_P2;PMS_P1;PMS_P2;Temp;Humidity;BMP_temperature;BMP_pressure;BME280_temperature;BME280_humidity;BME280_pressure;Samples;Min_cycle;Max_cycle;Signal;HPM_P1;HPM_P2
2022/09/05 00:01:47;;;;;;;;;;;;;;;;;;6286952;22;19930;-87
2022/09/05 00:04:14;;;;;;;;;;;;;;;;;;6262744;22;19915;-87
2022/09/05 00:06:40;;;;;;;;;;;;;;;;;;6284540;22;19925;-87
2022/09/05 00:09:06;;;;;;;;;;;;;;;;;;6289361;22;20018;-87
2022/09/05 00:11:35;;;;;;;;;;;;;;;;;;6288523;22;19922;-87
2022/09/05 00:14:00;;;;;;;;;;;;;;;;;;6287948;22;20033;-87
2022/09/05 00:16:26;;;;;;;;;;;;;;;;;;6260528;22;19923;-87
2022/09/05 00:18:52;;;;;;;;;;;;;;;;;;6287395;22;19941;-87
2022/09/05 00:21:18;;;;;;;;;;;;;;;;;;6261735;22;20346;-87
2022/09/05 00:23:44;;;;;;;;;;;;;;;;;;6258360;22;19923;-87
2022/09/05 00:26:11;;;;;;;;;;;;;;;;;;6288949;22;19915;-87
2022/09/05 00:28:37;;;;;;;;;;;;;;;;;;6257714;22;19919;-87
2022/09/05 00:31:03;;;;;;;;;;;;;;;;;;6262541;22;19919;-87
2022/09/05 00:33:30;;;;;;;;;;;;;;;;;;6285224;22;19950;-87
2022/09/05 00:35:56;;;;;;;;;;;;;;;;;;6263500;22;19979;-87
2022/09/05 00:38:22;;;;;;;;;;;;;;;;;;6262394;22;19923;-87
2022/09/05 00:40:48;;;;;;;;;;;;;;;;;;6260029;22;19926;-87
2022/09/05 00:43:14;;;;;;;;;;;;;;;;;;6288447;22;19926;-87
2022/09/05 00:45:41;;;;;;;;;;;;;;;;;;6261751;22;20151;-87
2022/09/05 00:48:07;;;;;;;;;;;;;;;;;;6286344;22;19976;-87
2022/09/05 00:50:33;;;;;;;;;;;;;;;;;;6282898;22;20290;-87
2022/09/05 00:53:02;;;;;;;;;;;;;;;;;;6288730;22;19919;-87
2022/09/05 00:55:28;;;;;;;;;;;;;;;;;;6286171;22;19921;-87
2022/09/05 00:57:54;;;;;;;;;;;;;;;;;;6289985;22;20177;-87
2022/09/05 01:00:21;;;;;;;;;;;;;;;;;;6291571;22;19919;-87
2022/09/05 01:02:47;;;;;;;;;;;;;;;;;;6286075;22;19994;-87
2022/09/05 01:05:13;;;;;;;;;;;;;;;;;;6266434;22;20310;-87
2022/09/05 01:07:39;;;;;;;;;;;;;;;;;;6288702;22;20244;-87
2022/09/05 01:10:05;;;;;;;;;;;;;;;;;;6291135;22;20284;-87
2022/09/05 01:12:31;;;;;;;;;;;;;;;;;;6287100;22;20132;-87
2022/09/05 01:14:57;;;;;;;;;;;;;;;;;;6266482;22;19927;-88
2022/09/05 01:17:26;;;;;;;;;;;;;;;;;;6261519;22;20336;-87
2022/09/05 01:19:52;;;;;;;;;;;;;;;;;;6288028;22;19925;-88
2022/09/05 01:22:20;;;;;;;;;;;;;;;;;;6264266;22;19923;-87
2022/09/05 01:24:46;;;;;;;;;;;;;;;;;;6287841;22;20012;-87
2022/09/05 01:27:12;;;;;;;;;;;;;;;;;;6292091;22;19915;-87
2022/09/05 01:29:38;;;;;;;;;;;;;;;;;;6261195;22;19926;-87
2022/09/05 01:32:05;;;;;;;;;;;;;;;;;;6260710;22;19989;-87
2022/09/05 01:34:31;;;;;;;;;;;;;;;;;;6259579;22;19922;-87
2022/09/05 01:36:57;;;;;;;;;;;;;;;;;;6279903;22;20487;-87
2022/09/05 01:39:23;;;;;;;;;;;;;;;;;;6259204;22;19919;-87
2022/09/05 01:41:49;;;;;;;;;;;;;;;;;;6259886;22;19919;-87
2022/09/05 01:44:15;;;;;;;;;;;;;;;;;;6290052;22;19998;-87
2022/09/05 01:46:41;;;;;;;;;;;;;;;;;;6286688;22;19923;-87
2022/09/05 01:49:07;;;;;;;;;;;;;;;;;;6289294;22;19950;-87
2022/09/05 01:51:33;;;;;;;;;;;;;;;;;;6256019;22;20227;-87
2022/09/05 01:54:05;;;;;;;;;;;;;;;;;;6288995;22;20254;-87
2022/09/05 01:56:37;;;;;;;;;;;;;;;;;;6285229;22;19956;-87
2022/09/05 01:59:03;;;;;;;;;;;;;;;;;;6287672;22;19993;-87
2022/09/05 02:01:29;;;;;;;;;;;;;;;;;;6260832;22;19922;-87
2022/09/05 02:03:55;;;;;;;;;;;;;;;;;;6290692;22;20247;-87
2022/09/05 02:06:21;;;;;;;;;;;;;;;;;;6291710;22;19918;-86
2022/09/05 02:08:46;;;;;;;;;;;;;;;;;;6288028;22;19923;-87
2022/09/05 02:11:12;;;;;;;;;;;;;;;;;;6264138;22;20410;-86
2022/09/05 02:13:38;;;;;;;;;;;;;;;;;;6289063;22;19958;-87
2022/09/05 02:16:15;;;;;;;;;;;;;;;;;;6288865;22;20295;-87
2022/09/05 02:18:43;;;;;;;;;;;;;;;;;;6261265;22;20017;-87
2022/09/05 02:21:09;;;;;;;;;;;;;;;;;;6264514;22;19919;-87
2022/09/05 02:23:37;;;;;;;;;;;;;;;;;;6263123;22;19952;-87
2022/09/05 02:26:03;;;;;;;;;;;;;;;;;;6264240;22;19961;-87
2022/09/05 02:28:32;;;;;;;;;;;;;;;;;;6287071;22;19923;-87
2022/09/05 02:30:58;;;;;;;;;;;;;;;;;;6262629;22;19915;-87
2022/09/05 02:33:30;;;;;;;;;;;;;;;;;;6289105;22;19930;-87
2022/09/05 02:35:56;;;;;;;;;;;;;;;;;;6293856;22;19919;-87
2022/09/05 02:38:22;;;;;;;;;;;;;;;;;;6291350;22;19919;-87
2022/09/05 02:40:52;;;;;;;;;;;;;;;;;;6290630;22;19960;-87
2022/09/05 02:43:18;;;;;;;;;;;;;;;;;;6263569;22;19915;-87
2022/09/05 02:45:44;;;;;;;;;;;;;;;;;;6262019;22;20443;-87
2022/09/05 02:48:10;;;;;;;;;;;;;;;;;;6265588;22;20233;-86
2022/09/05 02:50:36;;;;;;;;;;;;;;;;;;6263034;22;20379;-86
2022/09/05 02:53:08;;;;;;;;;;;;;;;;;;6264074;22;19918;-87
2022/09/05 02:55:34;;;;;;;;;;;;;;;;;;6262005;22;19930;-87
2022/09/05 02:58:00;;;;;;;;;;;;;;;;;;6288047;22;20335;-87
2022/09/05 03:00:26;;;;;;;;;;;;;;;;;;6286912;22;19918;-87
2022/09/05 03:02:52;;;;;;;;;;;;;;;;;;6289509;22;19925;-87
2022/09/05 03:05:20;;;;;;;;;;;;;;;;;;6266041;22;20323;-87
2022/09/05 03:07:47;;;;;;;;;;;;;;;;;;6262883;22;19923;-86
2022/09/05 03:10:12;;;;;;;;;;;;;;;;;;6291364;22;19993;-87
2022/09/05 03:12:44;;;;;;;;;;;;;;;;;;6259740;22;20020;-86
2022/09/05 03:15:10;;;;;;;;;;;;;;;;;;6288379;22;19964;-86
2022/09/05 03:17:43;;;;;;;;;;;;;;;;;;6261571;22;20582;-87
2022/09/05 03:20:09;;;;;;;;;;;;;;;;;;6262674;22;20228;-87
2022/09/05 03:22:36;;;;;;;;;;;;;;;;;;6261841;22;19969;-87
2022/09/05 03:25:04;;;;;;;;;;;;;;;;;;6289196;22;20378;-87
2022/09/05 03:27:30;;;;;;;;;;;;;;;;;;6288990;22;19958;-87
2022/09/05 03:29:56;;;;;;;;;;;;;;;;;;6262417;22;20339;-87
2022/09/05 03:32:22;;;;;;;;;;;;;;;;;;6262298;22;20016;-87
2022/09/05 03:34:48;;;;;;;;;;;;;;;;;;6261631;22;19929;-87
2022/09/05 03:37:15;;;;;;;;;;;;;;;;;;6291450;22;20001;-87
2022/09/05 03:39:41;;;;;;;;;;;;;;;;;;6259886;22;19919;-87
2022/09/05 03:42:07;;;;;;;;;;;;;;;;;;6285851;22;20414;-87
2022/09/05 03:44:35;;;;;;;;;;;;;;;;;;6256050;22;19919;-87
2022/09/05 03:47:01;;;;;;;;;;;;;;;;;;6262018;22;19919;-87
2022/09/05 03:49:27;;;;;;;;;;;;;;;;;;6260068;22;20087;-87
2022/09/05 03:52:01;;;;;;;;;;;;;;;;;;6268140;22;19925;-87
2022/09/05 03:54:27;;;;;;;;;;;;;;;;;;6260345;22;19923;-87
2022/09/05 03:56:53;;;;;;;;;;;;;;;;;;6263286;22;19970;-87
2022/09/05 03:59:19;;;;;;;;;;;;;;;;;;6286693;22;19925;-81
2022/09/05 04:01:48;;;;;;;;;;;;;;;;;;6286217;22;20250;-81
2022/09/05 04:04:14;;;;;;;;;;;;;;;;;;6292045;22;19994;-81
2022/09/05 04:06:40;;;;;;;;;;;;;;;;;;6290018;22;19921;-82
2022/09/05 04:09:12;;;;;;;;;;;;;;;;;;6265361;22;20372;-81
2022/09/05 04:11:38;;;;;;;;;;;;;;;;;;6287552;22;19954;-81
2022/09/05 04:14:05;;;;;;;;;;;;;;;;;;6290016;22;19923;-81
2022/09/05 04:16:31;;;;;;;;;;;;;;;;;;6261048;22;19915;-81
2022/09/05 04:18:57;;;;;;;;;;;;;;;;;;6289293;22;20279;-80
2022/09/05 04:21:23;;;;;;;;;;;;;;;;;;6286347;22;19927;-81
2022/09/05 04:23:52;;;;;;;;;;;;;;;;;;6292051;22;20311;-81
2022/09/05 04:26:18;;;;;;;;;;;;;;;;;;6264418;22;19922;-81
2022/09/05 04:28:45;;;;;;;;;;;;;;;;;;6260550;22;19919;-81
2022/09/05 04:31:11;;;;;;;;;;;;;;;;;;6263195;22;19922;-81
2022/09/05 04:33:38;;;;;;;;;;;;;;;;;;6260459;22;19923;-81
2022/09/05 04:36:04;;;;;;;;;;;;;;;;;;6287893;22;20385;-81
2022/09/05 04:38:35;;;;;;;;;;;;;;;;;;6286339;22;19925;-81
2022/09/05 04:41:02;;;;;;;;;;;;;;;;;;6290614;22;19923;-81
2022/09/05 04:43:28;;;;;;;;;;;;;;;;;;6286911;22;19941;-81
2022/09/05 04:45:54;;;;;;;;;;;;;;;;;;6264556;22;20693;-81
2022/09/05 04:48:23;;;;;;;;;;;;;;;;;;6291945;22;19918;-81
2022/09/05 04:50:49;;;;;;;;;;;;;;;;;;6262940;22;19969;-80
2022/09/05 04:53:15;;;;;;;;;;;;;;;;;;6267040;22;19923;-81
2022/09/05 04:55:40;;;;;;;;;;;;;;;;;;6290214;22;19919;-80
2022/09/05 04:58:07;;;;;;;;;;;;;;;;;;6264055;22;19918;-81
2022/09/05 05:00:41;;;;;;;;;;;;;;;;;;6261992;22;20339;-87
2022/09/05 05:03:07;;;;;;;;;;;;;;;;;;6261864;22;19923;-86
2022/09/05 05:05:33;;;;;;;;;;;;;;;;;;6288912;22;19926;-87
2022/09/05 05:07:59;;;;;;;;;;;;;;;;;;6266363;22;19994;-86
2022/09/05 05:10:31;;;;;;;;;;;;;;;;;;6287058;22;20253;-86
2022/09/05 05:12:57;;;;;;;;;;;;;;;;;;6266511;22;19919;-87
2022/09/05 05:15:23;;;;;;;;;;;;;;;;;;6266329;22;20053;-86
2022/09/05 05:17:51;;;;;;;;;;;;;;;;;;6264641;22;19925;-86
2022/09/05 05:20:20;;;;;;;;;;;;;;;;;;6292209;22;20389;-86
2022/09/05 05:22:46;;;;;;;;;;;;;;;;;;6264344;22;19926;-86
2022/09/05 05:25:12;;;;;;;;;;;;;;;;;;6267159;22;19919;-86
2022/09/05 05:27:38;;;;;;;;;;;;;;;;;;6264743;22;20251;-86
2022/09/05 05:30:05;;;;;;;;;;;;;;;;;;6288407;22;19919;-86
2022/09/05 05:32:33;;;;;;;;;;;;;;;;;;6288987;22;19919;-86
2022/09/05 05:34:59;;;;;;;;;;;;;;;;;;6295200;22;19969;-86
2022/09/05 05:37:28;;;;;;;;;;;;;;;;;;6266842;22;19922;-87
2022/09/05 05:39:54;;;;;;;;;;;;;;;;;;6296071;22;20032;-86
2022/09/05 05:42:26;;;;;;;;;;;;;;;;;;6267871;22;19918;-87
2022/09/05 05:44:52;;;;;;;;;;;;;;;;;;6296621;22;19919;-87
2022/09/05 05:47:18;;;;;;;;;;;;;;;;;;6270079;22;19950;-87
2022/09/05 05:49:44;;;;;;;;;;;;;;;;;;6294330;22;19929;-87
2022/09/05 05:52:11;;;;;;;;;;;;;;;;;;6268659;22;19949;-86
2022/09/05 05:54:38;;;;;;;;;;;;;;;;;;6264215;22;20730;-87
2022/09/05 05:57:04;;;;;;;;;;;;;;;;;;6270466;22;19945;-87
2022/09/05 05:59:34;;;;;;;;;;;;;;;;;;6292643;22;19919;-86
2022/09/05 06:02:01;;;;;;;;;;;;;;;;;;6266070;22;19919;-87
2022/09/05 06:04:32;;;;;;;;;;;;;;;;;;6267826;22;19918;-87
2022/09/05 06:07:00;;;;;;;;;;;;;;;;;;6295727;22;19914;-87
2022/09/05 06:09:26;;;;;;;;;;;;;;;;;;6266721;22;20631;-81
2022/09/05 06:11:52;;;;;;;;;;;;;;;;;;6268340;22;19919;-81
2022/09/05 06:14:18;;;;;;;;;;;;;;;;;;6292295;22;19918;-82
2022/09/05 06:16:44;;;;;;;;;;;;;;;;;;6296099;22;20071;-81
2022/09/05 06:19:10;;;;;;;;;;;;;;;;;;6292807;22;19919;-81
2022/09/05 06:21:36;;;;;;;;;;;;;;;;;;6294408;22;19990;-81
2022/09/05 06:24:02;;;;;;;;;;;;;;;;;;6294791;22;20312;-81
2022/09/05 06:26:28;;;;;;;;;;;;;;;;;;6292491;22;20331;-81
2022/09/05 06:28:54;;;;;;;;;;;;;;;;;;6296659;22;19955;-81
2022/09/05 06:31:20;;;;;;;;;;;;;;;;;;6296675;22;19961;-81
2022/09/05 06:33:46;;;;;;;;;;;;;;;;;;6291985;22;20130;-81
2022/09/05 06:36:12;;;;;;;;;;;;;;;;;;6297486;22;19946;-81
2022/09/05 06:38:38;;;;;;;;;;;;;;;;;;6292817;22;19918;-81
2022/09/05 06:41:04;;;;;;;;;;;;;;;;;;6291567;22;19915;-81
2022/09/05 06:43:30;;;;;;;;;;;;;;;;;;6290616;22;19925;-81
2022/09/05 06:45:58;;;;;;;;;;;;;;;;;;6292296;22;21546;-81
2022/09/05 06:48:34;;;;;;;;;;;;;;;;;;6293474;22;19926;-81
2022/09/05 06:51:00;;;;;;;;;;;;;;;;;;6295646;22;19919;-81
2022/09/05 06:53:25;;;;;;;;;;;;;;;;;;6294250;22;19915;-81
2022/09/05 06:55:52;;;;;;;;;;;;;;;;;;6296410;22;19960;-81
2022/09/05 06:58:18;;;;;;;;;;;;;;;;;;6296604;22;19997;-81
2022/09/05 07:00:44;;;;;;;;;;;;;;;;;;6291383;22;19950;-80
2022/09/05 07:03:10;;;;;;;;;;;;;;;;;;6296598;22;19927;-80
2022/09/05 07:05:36;;;;;;;;;;;;;;;;;;6291152;22;19919;-81
2022/09/05 07:08:04;;;;;;;;;;;;;;;;;;6295130;22;19915;-86
2022/09/05 07:10:36;;;;;;;;;;;;;;;;;;6267859;22;19915;-87
2022/09/05 07:13:02;;;;;;;;;;;;;;;;;;6270274;22;19915;-87
2022/09/05 07:15:37;;;;;;;;;;;;;;;;;;6266552;22;20239;-87
2022/09/05 07:18:08;;;;;;;;;;;;;;;;;;6296325;22;19923;-87
2022/09/05 07:20:40;;;;;;;;;;;;;;;;;;6292549;22;19921;-87
2022/09/05 07:23:06;;;;;;;;;;;;;;;;;;6271441;22;19926;-87
2022/09/05 07:25:32;;;;;;;;;;;;;;;;;;6295222;22;19926;-86
2022/09/05 07:27:58;;;;;;;;;;;;;;;;;;6269290;22;19919;-86
2022/09/05 07:30:24;;;;;;;;;;;;;;;;;;6268909;22;20336;-87
2022/09/05 07:33:03;;;;;;;;;;;;;;;;;;;;;
2022/09/05 07:35:46;;;;;;;;;;;;;;;;;;6293049;22;19942;-87
2022/09/05 07:38:35;;;;;;;;;;;;;;;;;;6291714;22;19926;-88
2022/09/05 07:44:11;;;;;;;;;;;;;;;;;;6060188;23;20334;-87
2022/09/05 07:46:46;;;;;;;;;;;;;;;;;;6054821;23;20327;-86
2022/09/05 07:49:33;;;;;;;;;;;;;;;;;;6177855;23;19919;-87
2022/09/05 07:52:12;;;;;;;;;;;;;;;;;;6201573;23;19927;-87
2022/09/05 07:55:00;;;;;;;;;;;;;;;;;;6152518;23;19939;-87
2022/09/05 07:57:38;;;;;;;;;;;;;;;;;;6141401;23;20364;-87
2022/09/05 08:06:27;;;;;;;;;;;;;;;;;;6193540;22;19982;-86
2022/09/05 08:14:39;;;;;;;;;;;;;;;;;;6217313;22;20291;-86
2022/09/05 08:17:10;;;;;;;;;;;;;;;;;;6208458;22;20322;-87
2022/09/05 08:19:57;;;;;;;;;;;;;;;;;;6198777;22;20009;-87
2022/09/05 08:25:35;;;;;;;;;;;;;;;;;;6221327;23;19916;-87
2022/09/05 08:31:39;;;;;;;;;;;;;;;;;;;;;
2022/09/05 08:34:17;;;;;;;;;;;;;;;;;;6209273;23;20458;-87
2022/09/05 08:37:11;;;;;;;;;;;;;;;;;;6185730;23;19926;-87
2022/09/05 08:48:48;;;;;;;;;;;;;;;;;;6058001;23;19932;-87
2022/09/05 08:51:17;;;;;;;;;;;;;;;;;;6071083;23;20025;-87
2022/09/05 08:53:43;;;;;;;;;;;;;;;;;;6046494;23;19924;-87
2022/09/05 08:56:09;;;;;;;;;;;;;;;;;;6122857;23;19916;-87
2022/09/05 08:58:35;;;;;;;;;;;;;;;;;;6150568;23;19978;-86
2022/09/05 09:01:04;;;;;;;;;;;;;;;;;;6154723;23;20344;-87
2022/09/05 09:03:30;;;;;;;;;;;;;;;;;;6152656;23;20348;-87
2022/09/05 09:05:59;;;;;;;;;;;;;;;;;;6154129;23;19916;-87
2022/09/05 09:08:30;;;;;;;;;;;;;;;;;;6200659;23;19915;-87
2022/09/05 09:11:02;;;;;;;;;;;;;;;;;;6155224;23;19962;-87
2022/09/05 09:13:28;;;;;;;;;;;;;;;;;;6161667;23;19919;-87
2022/09/05 09:15:57;;;;;;;;;;;;;;;;;;6230961;22;19924;-87
2022/09/05 09:18:23;;;;;;;;;;;;;;;;;;6273874;22;20405;-87
2022/09/05 09:20:53;;;;;;;;;;;;;;;;;;6271892;22;19919;-87
2022/09/05 09:23:19;;;;;;;;;;;;;;;;;;6298767;22;19919;-87
2022/09/05 09:25:45;;;;;;;;;;;;;;;;;;6270464;22;20075;-87
2022/09/05 09:28:11;;;;;;;;;;;;;;;;;;6273551;22;19953;-86
2022/09/05 09:30:37;;;;;;;;;;;;;;;;;;6270500;22;19965;-87
2022/09/05 09:33:03;;;;;;;;;;;;;;;;;;6273619;22;20373;-87
2022/09/05 09:35:29;;;;;;;;;;;;;;;;;;6271093;22;19923;-87
2022/09/05 09:37:55;;;;;;;;;;;;;;;;;;6273968;22;20560;-87
2022/09/05 09:40:21;;;;;;;;;;;;;;;;;;6273025;22;20327;-87
2022/09/05 09:42:47;;;;;;;;;;;;;;;;;;6295837;22;19922;-87
2022/09/05 09:45:13;;;;;;;;;;;;;;;;;;6273029;22;19922;-87
2022/09/05 09:47:39;;;;;;;;;;;;;;;;;;6270548;22;19915;-87
2022/09/05 09:50:05;;;;;;;;;;;;;;;;;;6272587;22;19923;-87
2022/09/05 09:52:31;;;;;;;;;;;;;;;;;;6270336;22;19925;-87
2022/09/05 09:54:58;;;;;;;;;;;;;;;;;;6273750;22;19934;-87
2022/09/05 09:57:24;;;;;;;;;;;;;;;;;;6274564;22;20251;-87
2022/09/05 09:59:50;;;;;;;;;;;;;;;;;;6273294;22;19915;-87
2022/09/05 10:02:19;;;;;;;;;;;;;;;;;;6298352;22;19922;-87
2022/09/05 10:04:45;;;;;;;;;;;;;;;;;;6270920;22;19919;-87
2022/09/05 10:07:17;;;;;;;;;;;;;;;;;;6274639;22;19970;-87
2022/09/05 10:09:43;;;;;;;;;;;;;;;;;;6271374;22;19938;-87
2022/09/05 10:12:15;;;;;;;;;;;;;;;;;;6275170;22;20247;-87
2022/09/05 10:14:42;;;;;;;;;;;;;;;;;;6271741;22;19997;-87
2022/09/05 10:17:13;;;;;;;;;;;;;;;;;;6296652;22;20294;-87
2022/09/05 10:19:40;;;;;;;;;;;;;;;;;;6290743;22;19915;-88
2022/09/05 10:22:06;;;;;;;;;;;;;;;;;;6293647;22;19919;-88
2022/09/05 10:24:32;;;;;;;;;;;;;;;;;;6293522;22;19944;-87
2022/09/05 10:26:58;;;;;;;;;;;;;;;;;;6296181;22;19941;-87
2022/09/05 10:29:27;;;;;;;;;;;;;;;;;;6269327;22;20231;-87
2022/09/05 10:31:56;;;;;;;;;;;;;;;;;;6269825;22;19925;-88
2022/09/05 10:34:22;;;;;;;;;;;;;;;;;;6291322;22;19927;-87
2022/09/05 10:36:53;;;;;;;;;;;;;;;;;;6268899;22;20311;-87
2022/09/05 10:39:22;;;;;;;;;;;;;;;;;;6299641;22;19914;-87
2022/09/05 10:41:57;;;;;;;;;;;;;;;;;;6274701;22;19998;-88
2022/09/05 10:44:26;;;;;;;;;;;;;;;;;;6272660;22;19914;-87
2022/09/05 10:46:52;;;;;;;;;;;;;;;;;;6268649;22;19914;-87
2022/09/05 10:49:18;;;;;;;;;;;;;;;;;;6271677;22;19914;-87
2022/09/05 10:51:45;;;;;;;;;;;;;;;;;;6270716;22;19925;-88
2022/09/05 10:54:11;;;;;;;;;;;;;;;;;;6299696;22;19923;-87
2022/09/05 10:56:38;;;;;;;;;;;;;;;;;;6270193;22;19914;-87
2022/09/05 10:59:06;;;;;;;;;;;;;;;;;;6272925;22;19915;-87
2022/09/05 11:01:33;;;;;;;;;;;;;;;;;;6270288;22;19915;-87
2022/09/05 11:04:00;;;;;;;;;;;;;;;;;;6273138;22;19915;-88
2022/09/05 11:06:26;;;;;;;;;;;;;;;;;;6295754;22;19999;-87
2022/09/05 11:08:52;;;;;;;;;;;;;;;;;;6273353;22;20308;-87
2022/09/05 11:11:18;;;;;;;;;;;;;;;;;;6272796;22;19925;-87
2022/09/05 11:13:44;;;;;;;;;;;;;;;;;;6295875;22;19930;-88
2022/09/05 11:16:13;;;;;;;;;;;;;;;;;;6301087;22;19926;-87
2022/09/05 11:18:39;;;;;;;;;;;;;;;;;;6294803;22;19921;-88
2022/09/05 11:21:06;;;;;;;;;;;;;;;;;;6271957;22;19954;-88
2022/09/05 11:23:35;;;;;;;;;;;;;;;;;;6271367;22;19938;-88
2022/09/05 11:26:01;;;;;;;;;;;;;;;;;;6272778;22;20375;-88
2022/09/05 11:28:27;;;;;;;;;;;;;;;;;;6269971;22;19926;-88
2022/09/05 11:30:56;;;;;;;;;;;;;;;;;;6299487;22;19923;-87
2022/09/05 11:33:22;;;;;;;;;;;;;;;;;;6296946;22;19923;-87
2022/09/05 11:35:49;;;;;;;;;;;;;;;;;;6269519;22;19982;-88
2022/09/05 11:38:15;;;;;;;;;;;;;;;;;;6273078;22;19919;-88
2022/09/05 11:40:41;;;;;;;;;;;;;;;;;;6268408;22;19925;-87
2022/09/05 11:43:07;;;;;;;;;;;;;;;;;;6296084;22;19918;-89
2022/09/05 11:45:37;;;;;;;;;;;;;;;;;;6266643;22;19964;-88
2022/09/05 11:48:03;;;;;;;;;;;;;;;;;;6296607;22;19937;-87
2022/09/05 11:50:29;;;;;;;;;;;;;;;;;;6294257;22;20339;-88
2022/09/05 11:52:56;;;;;;;;;;;;;;;;;;6268028;22;19922;-88
2022/09/05 11:55:23;;;;;;;;;;;;;;;;;;6293824;22;20246;-88
2022/09/05 11:57:51;;;;;;;;;;;;;;;;;;6268563;22;19914;-89
2022/09/05 12:00:18;;;;;;;;;;;;;;;;;;6295299;22;20000;-88
2022/09/05 12:02:44;;;;;;;;;;;;;;;;;;6290687;22;19915;-88
2022/09/05 12:05:10;;;;;;;;;;;;;;;;;;6295621;22;19914;-88
2022/09/05 12:07:40;;;;;;;;;;;;;;;;;;6266709;22;19919;-88
2022/09/05 12:10:12;;;;;;;;;;;;;;;;;;6293802;22;19925;-88
2022/09/05 12:12:45;;;;;;;;;;;;;;;;;;6293416;22;20259;-88
2022/09/05 12:15:15;;;;;;;;;;;;;;;;;;6295405;22;19919;-88
2022/09/05 12:17:45;;;;;;;;;;;;;;;;;;6267018;22;20342;-88
2022/09/05 12:20:11;;;;;;;;;;;;;;;;;;6269136;22;19958;-88
2022/09/05 12:22:37;;;;;;;;;;;;;;;;;;6267072;22;19922;-88
2022/09/05 12:25:03;;;;;;;;;;;;;;;;;;6266660;22;19925;-88
2022/09/05 12:27:29;;;;;;;;;;;;;;;;;;6265291;22;20354;-88
2022/09/05 12:29:55;;;;;;;;;;;;;;;;;;6269765;22;19998;-89
2022/09/05 12:32:24;;;;;;;;;;;;;;;;;;6295771;22;19915;-88
2022/09/05 12:34:51;;;;;;;;;;;;;;;;;;6294459;22;19966;-88
2022/09/05 12:37:17;;;;;;;;;;;;;;;;;;6269810;22;19923;-88
2022/09/05 12:39:43;;;;;;;;;;;;;;;;;;6267910;22;19923;-88
2022/09/05 12:42:09;;;;;;;;;;;;;;;;;;6293589;22;20302;-88
2022/09/05 12:44:35;;;;;;;;;;;;;;;;;;6266490;22;19989;-88
2022/09/05 12:47:01;;;;;;;;;;;;;;;;;;6296542;22;19945;-87
2022/09/05 12:49:27;;;;;;;;;;;;;;;;;;6295124;22;19968;-88
2022/09/05 12:51:53;;;;;;;;;;;;;;;;;;6271042;22;20261;-88
2022/09/05 12:54:20;;;;;;;;;;;;;;;;;;6271830;22;20332;-88
2022/09/05 12:56:46;;;;;;;;;;;;;;;;;;6265909;22;19918;-88
2022/09/05 12:59:13;;;;;;;;;;;;;;;;;;6270302;22;20286;-88
2022/09/05 13:01:39;;;;;;;;;;;;;;;;;;6292882;22;19936;-88
2022/09/05 13:04:05;;;;;;;;;;;;;;;;;;6295923;22;19998;-88
2022/09/05 13:06:32;;;;;;;;;;;;;;;;;;6292770;22;19926;-88
2022/09/05 13:08:58;;;;;;;;;;;;;;;;;;6295441;22;20033;-87
2022/09/05 13:11:27;;;;;;;;;;;;;;;;;;6266565;22;19926;-88
2022/09/05 13:13:53;;;;;;;;;;;;;;;;;;6295604;22;19929;-88
2022/09/05 13:16:19;;;;;;;;;;;;;;;;;;6294273;22;20637;-88
2022/09/05 13:18:45;;;;;;;;;;;;;;;;;;6265484;22;20339;-88
2022/09/05 13:21:17;;;;;;;;;;;;;;;;;;6269403;22;19926;-88
2022/09/05 13:23:43;;;;;;;;;;;;;;;;;;6265599;22;19930;-88
2022/09/05 13:26:10;;;;;;;;;;;;;;;;;;6271206;22;19919;-88
2022/09/05 13:28:40;;;;;;;;;;;;;;;;;;6292321;22;19923;-88
2022/09/05 13:31:07;;;;;;;;;;;;;;;;;;6269997;22;19950;-88
2022/09/05 13:33:36;;;;;;;;;;;;;;;;;;6294182;22;19937;-88
2022/09/05 13:36:04;;;;;;;;;;;;;;;;;;6269897;22;19926;-89
2022/09/05 13:38:30;;;;;;;;;;;;;;;;;;6296781;22;19919;-88
2022/09/05 13:40:59;;;;;;;;;;;;;;;;;;6270947;22;20342;-88
2022/09/05 13:43:25;;;;;;;;;;;;;;;;;;6296057;22;20346;-88
2022/09/05 13:45:52;;;;;;;;;;;;;;;;;;6295616;22;19961;-88
2022/09/05 13:48:18;;;;;;;;;;;;;;;;;;6267980;22;19919;-88
2022/09/05 13:50:53;;;;;;;;;;;;;;;;;;6262709;22;19938;-89
2022/09/05 13:53:25;;;;;;;;;;;;;;;;;;6269278;22;19918;-87
2022/09/05 13:55:52;;;;;;;;;;;;;;;;;;6267548;22;19923;-88
2022/09/05 13:58:18;;;;;;;;;;;;;;;;;;6295857;22;19919;-88
2022/09/05 14:00:45;;;;;;;;;;;;;;;;;;6264920;22;20942;-89
2022/09/05 14:03:11;;;;;;;;;;;;;;;;;;6267990;22;19994;-87
2022/09/05 14:05:37;;;;;;;;;;;;;;;;;;6293250;22;19949;-87
2022/09/05 14:08:03;;;;;;;;;;;;;;;;;;6269442;22;19914;-87
2022/09/05 14:10:30;;;;;;;;;;;;;;;;;;6263541;22;20484;-88
2022/09/05 14:12:56;;;;;;;;;;;;;;;;;;6264604;22;20320;-88
2022/09/05 14:15:22;;;;;;;;;;;;;;;;;;6294930;22;19923;-88
2022/09/05 14:17:50;;;;;;;;;;;;;;;;;;6237167;22;20340;-88
2022/09/05 14:26:11;;;;;;;;;;;;;;;;;;6236702;22;19923;-88
2022/09/05 14:31:50;;;;;;;;;;;;;;;;;;6085015;22;20312;-86
2022/09/05 14:34:20;;;;;;;;;;;;;;;;;;6297486;22;19919;-85
2022/09/05 14:36:47;;;;;;;;;;;;;;;;;;6270649;22;19945;-85
2022/09/05 14:39:15;;;;;;;;;;;;;;;;;;6271446;22;19926;-86
2022/09/05 14:41:41;;;;;;;;;;;;;;;;;;6267174;22;19918;-86
2022/09/05 14:44:11;;;;;;;;;;;;;;;;;;6271651;22;19929;-85
2022/09/05 14:46:48;;;;;;;;;;;;;;;;;;6268211;22;19993;-86
2022/09/05 14:49:15;;;;;;;;;;;;;;;;;;6266706;22;19918;-86
2022/09/05 14:51:49;;;;;;;;;;;;;;;;;;6293368;22;19926;-86
2022/09/05 14:54:16;;;;;;;;;;;;;;;;;;6242328;22;20132;-85
2022/09/05 14:56:47;;;;;;;;;;;;;;;;;;6239237;22;19922;-85
2022/09/05 14:59:24;;;;;;;;;;;;;;;;;;;;;
2022/09/05 15:02:00;;;;;;;;;;;;;;;;;;6268127;22;19934;-86
2022/09/05 15:04:31;;;;;;;;;;;;;;;;;;6289666;22;20351;-86
2022/09/05 15:06:58;;;;;;;;;;;;;;;;;;6238779;22;19919;-86
2022/09/05 15:09:27;;;;;;;;;;;;;;;;;;6243526;22;19922;-86
2022/09/05 15:11:54;;;;;;;;;;;;;;;;;;6265941;22;19919;-85
2022/09/05 15:14:27;;;;;;;;;;;;;;;;;;6288493;22;19923;-85
2022/09/05 15:17:18;;;;;;;;;;;;;;;;;;;;;
2022/09/05 15:58:17;;;;;;;;;;;;;;;;;;;;;
2022/09/05 16:07:50;;;;;;;;;;;;;;;;;;;;;
2022/09/05 16:10:17;;;;;;;;;;;;;;;;;;6199022;23;19923;-87
2022/09/05 16:13:08;;;;;;;;;;;;;;;;;;6199830;23;19930;-87
2022/09/05 16:15:40;;;;;;;;;;;;;;;;;;6166984;23;19920;-87
2022/09/05 16:18:20;;;;;;;;;;;;;;;;;;6179181;23;19924;-87
2022/09/05 16:20:59;;;;;;;;;;;;;;;;;;;;;
2022/09/05 16:26:03;;;;;;;;;;;;;;;;;;6201010;22;19915;-88
2022/09/05 16:28:47;;;;;;;;;;;;;;;;;;6197287;23;19927;-86
2022/09/05 16:31:33;;;;;;;;;;;;;;;;;;6144482;23;20020;-85
2022/09/05 16:34:01;;;;;;;;;;;;;;;;;;6114132;23;19920;-86
2022/09/05 16:36:47;;;;;;;;;;;;;;;;;;;;;
2022/09/05 16:39:31;;;;;;;;;;;;;;;;;;6147252;23;20378;-86
2022/09/05 16:41:57;;;;;;;;;;;;;;;;;;6113457;23;19920;-87
2022/09/05 16:44:25;;;;;;;;;;;;;;;;;;6114993;23;19916;-85
2022/09/05 16:49:38;;;;;;;;;;;;;;;;;;6137051;23;19920;-86
2022/09/05 16:52:12;;;;;;;;;;;;;;;;;;6115182;23;20103;-86
2022/09/05 16:54:40;;;;;;;;;;;;;;;;;;6113405;23;19954;-86
2022/09/05 16:57:12;;;;;;;;;;;;;;;;;;6136427;23;19920;-86
2022/09/05 16:59:42;;;;;;;;;;;;;;;;;;6111871;23;20296;-87
2022/09/05 17:05:28;;;;;;;;;;;;;;;;;;6138580;23;19921;-89
2022/09/05 17:08:11;;;;;;;;;;;;;;;;;;6117068;23;20007;-89
2022/09/05 17:10:39;;;;;;;;;;;;;;;;;;6107660;23;19921;-88
2022/09/05 17:13:14;;;;;;;;;;;;;;;;;;6141161;23;20345;-89
2022/09/05 17:18:52;;;;;;;;;;;;;;;;;;6048287;23;20025;-88
2022/09/05 17:21:44;;;;;;;;;;;;;;;;;;;;;
2022/09/05 17:26:59;;;;;;;;;;;;;;;;;;6066372;23;19920;-87
2022/09/05 17:29:33;;;;;;;;;;;;;;;;;;6104048;23;19925;-89
2022/09/05 17:32:07;;;;;;;;;;;;;;;;;;6105874;23;19924;-88
2022/09/05 17:34:43;;;;;;;;;;;;;;;;;;6127157;23;19963;-88
2022/09/05 17:37:18;;;;;;;;;;;;;;;;;;6130687;23;19936;-87
2022/09/05 17:39:47;;;;;;;;;;;;;;;;;;6138692;23;20394;-88
2022/09/05 17:42:37;;;;;;;;;;;;;;;;;;6142161;23;20368;-89
2022/09/05 17:48:05;;;;;;;;;;;;;;;;;;6096907;23;19920;-89
2022/09/05 17:51:07;;;;;;;;;;;;;;;;;;6133140;23;19926;-89
2022/09/05 17:53:34;;;;;;;;;;;;;;;;;;6133501;23;20344;-92
2022/09/05 17:56:00;;;;;;;;;;;;;;;;;;6167643;23;19927;-88
2022/09/05 17:58:30;;;;;;;;;;;;;;;;;;6145339;23;19920;-89
2022/09/05 18:00:58;;;;;;;;;;;;;;;;;;6170185;23;19927;-88
2022/09/05 18:06:41;;;;;;;;;;;;;;;;;;6206544;23;20354;-88
2022/09/05 18:12:12;;;;;;;;;;;;;;;;;;6137060;23;19990;-88
2022/09/05 18:14:41;;;;;;;;;;;;;;;;;;6168943;23;19924;-89
2022/09/05 18:17:20;;;;;;;;;;;;;;;;;;;;;
2022/09/05 18:22:38;;;;;;;;;;;;;;;;;;6256581;22;20255;-87
2022/09/05 18:25:04;;;;;;;;;;;;;;;;;;6240142;22;19919;-87
2022/09/05 18:27:33;;;;;;;;;;;;;;;;;;6260762;22;19919;-87
2022/09/05 18:30:00;;;;;;;;;;;;;;;;;;6263614;22;19961;-87
2022/09/05 18:32:26;;;;;;;;;;;;;;;;;;6234388;22;19925;-87
2022/09/05 18:34:52;;;;;;;;;;;;;;;;;;6236930;22;19918;-80
2022/09/05 18:37:18;;;;;;;;;;;;;;;;;;6288324;22;19968;-80
2022/09/05 18:39:44;;;;;;;;;;;;;;;;;;6261399;22;19919;-81
2022/09/05 18:42:10;;;;;;;;;;;;;;;;;;6240397;22;20251;-81
2022/09/05 18:44:36;;;;;;;;;;;;;;;;;;6290573;22;19926;-81
2022/09/05 18:47:02;;;;;;;;;;;;;;;;;;6288997;22;19919;-81
2022/09/05 18:49:29;;;;;;;;;;;;;;;;;;6235274;22;19926;-81
2022/09/05 18:51:55;;;;;;;;;;;;;;;;;;6236891;22;19989;-81
2022/09/05 18:54:21;;;;;;;;;;;;;;;;;;6292089;22;20696;-81